sensor_id;sensor_type;location;lat;lon;timestamp;P1;durP1;ratioP1;P2;durP2;ratioP2
28545;SDS011;15749;49.606;8.738;2023-07-29T00:01:55;1.47;;;1.37;;
28545;SDS011;15749;49.606;8.738;2023-07-29T00:04:26;1.60;;;1.50;;
28545;SDS011;15749;49.606;8.738;2023-07-29T00:06:56;1.30;;;1.20;;
28545;SDS011;15749;49.606;8.738;2023-07-29T00:09:26;1.40;;;1.27;;
28545;SDS011;15749;49.606;8.738;2023-07-29T00:11:55;1.27;;;1.17;;
28545;SDS011;15749;49.606;8.738;2023-07-29T00:14:25;1.00;;;1.00;;
28545;SDS011;15749;49.606;8.738;2023-07-29T00:16:54;1.00;;;1.00;;
28545;SDS011;15749;49.606;8.738;2023-07-29T00:19:24;1.30;;;1.20;;
28545;SDS011;15749;49.606;8.738;2023-07-29T00:21:56;1.63;;;1.53;;
28545;SDS011;15749;49.606;8.738;2023-07-29T00:24:25;1.50;;;1.40;;
28545;SDS011;15749;49.606;8.738;2023-07-29T00:26:56;1.30;;;1.20;;
28545;SDS011;15749;49.606;8.738;2023-07-29T00:29:27;1.60;;;1.50;;
28545;SDS011;15749;49.606;8.738;2023-07-29T00:31:56;1.20;;;1.10;;
28545;SDS011;15749;49.606;8.738;2023-07-29T00:34:27;1.13;;;1.03;;
28545;SDS011;15749;49.606;8.738;2023-07-29T00:37:16;2.03;;;1.40;;
28545;SDS011;15749;49.606;8.738;2023-07-29T00:39:46;1.30;;;1.20;;
28545;SDS011;15749;49.606;8.738;2023-07-29T00:42:15;2.03;;;1.17;;
28545;SDS011;15749;49.606;8.738;2023-07-29T00:44:47;1.27;;;1.17;;
28545;SDS011;15749;49.606;8.738;2023-07-29T00:47:17;1.37;;;1.10;;
28545;SDS011;15749;49.606;8.738;2023-07-29T00:49:50;0.90;;;0.90;;
28545;SDS011;15749;49.606;8.738;2023-07-29T00:52:20;0.80;;;0.80;;
28545;SDS011;15749;49.606;8.738;2023-07-29T00:54:50;0.80;;;0.80;;
28545;SDS011;15749;49.606;8.738;2023-07-29T00:57:19;3.30;;;0.93;;
28545;SDS011;15749;49.606;8.738;2023-07-29T00:59:50;0.90;;;0.70;;
28545;SDS011;15749;49.606;8.738;2023-07-29T01:02:20;1.63;;;0.80;;
28545;SDS011;15749;49.606;8.738;2023-07-29T01:04:52;1.97;;;1.03;;
28545;SDS011;15749;49.606;8.738;2023-07-29T01:07:24;1.17;;;1.07;;
28545;SDS011;15749;49.606;8.738;2023-07-29T01:10:02;1.30;;;1.20;;
28545;SDS011;15749;49.606;8.738;2023-07-29T01:12:42;1.03;;;1.03;;
28545;SDS011;15749;49.606;8.738;2023-07-29T01:15:18;1.17;;;1.10;;
28545;SDS011;15749;49.606;8.738;2023-07-29T01:17:54;1.03;;;0.93;;
28545;SDS011;15749;49.606;8.738;2023-07-29T01:20:35;1.73;;;1.07;;
28545;SDS011;15749;49.606;8.738;2023-07-29T01:23:09;1.20;;;0.87;;
28545;SDS011;15749;49.606;8.738;2023-07-29T01:25:40;0.93;;;0.93;;
28545;SDS011;15749;49.606;8.738;2023-07-29T01:28:09;0.90;;;0.90;;
28545;SDS011;15749;49.606;8.738;2023-07-29T01:30:40;1.17;;;1.07;;
28545;SDS011;15749;49.606;8.738;2023-07-29T01:33:14;1.27;;;0.90;;
28545;SDS011;15749;49.606;8.738;2023-07-29T01:35:47;1.20;;;1.10;;
28545;SDS011;15749;49.606;8.738;2023-07-29T01:38:22;0.87;;;0.70;;
28545;SDS011;15749;49.606;8.738;2023-07-29T01:41:02;0.77;;;0.77;;
28545;SDS011;15749;49.606;8.738;2023-07-29T01:43:33;2.60;;;0.70;;
28545;SDS011;15749;49.606;8.738;2023-07-29T01:46:09;1.30;;;1.10;;
28545;SDS011;15749;49.606;8.738;2023-07-29T01:48:40;1.37;;;1.27;;
28545;SDS011;15749;49.606;8.738;2023-07-29T01:51:13;1.10;;;1.10;;
28545;SDS011;15749;49.606;8.738;2023-07-29T01:53:43;1.00;;;0.90;;
28545;SDS011;15749;49.606;8.738;2023-07-29T01:56:14;1.40;;;1.30;;
28545;SDS011;15749;49.606;8.738;2023-07-29T01:58:51;1.87;;;1.40;;
28545;SDS011;15749;49.606;8.738;2023-07-29T02:01:21;1.57;;;1.30;;
28545;SDS011;15749;49.606;8.738;2023-07-29T02:03:51;1.33;;;1.23;;
28545;SDS011;15749;49.606;8.738;2023-07-29T02:06:24;1.40;;;1.30;;
28545;SDS011;15749;49.606;8.738;2023-07-29T02:08:55;1.40;;;1.30;;
28545;SDS011;15749;49.606;8.738;2023-07-29T02:11:26;1.43;;;1.10;;
28545;SDS011;15749;49.606;8.738;2023-07-29T02:13:56;1.00;;;1.00;;
28545;SDS011;15749;49.606;8.738;2023-07-29T02:16:26;0.70;;;0.70;;
28545;SDS011;15749;49.606;8.738;2023-07-29T02:18:56;3.53;;;1.00;;
28545;SDS011;15749;49.606;8.738;2023-07-29T02:21:26;0.60;;;0.60;;
28545;SDS011;15749;49.606;8.738;2023-07-29T02:23:56;0.90;;;0.70;;
28545;SDS011;15749;49.606;8.738;2023-07-29T02:26:27;2.07;;;0.90;;
28545;SDS011;15749;49.606;8.738;2023-07-29T02:28:56;0.60;;;0.60;;
28545;SDS011;15749;49.606;8.738;2023-07-29T02:31:26;1.63;;;1.13;;
28545;SDS011;15749;49.606;8.738;2023-07-29T02:33:55;0.70;;;0.70;;
28545;SDS011;15749;49.606;8.738;2023-07-29T02:36:25;0.70;;;0.70;;
28545;SDS011;15749;49.606;8.738;2023-07-29T02:38:55;2.23;;;0.80;;
28545;SDS011;15749;49.606;8.738;2023-07-29T02:41:24;2.20;;;1.10;;
28545;SDS011;15749;49.606;8.738;2023-07-29T02:43:58;0.70;;;0.70;;
28545;SDS011;15749;49.606;8.738;2023-07-29T02:46:28;1.47;;;0.97;;
28545;SDS011;15749;49.606;8.738;2023-07-29T02:48:58;1.20;;;1.10;;
28545;SDS011;15749;49.606;8.738;2023-07-29T02:51:27;1.50;;;1.13;;
28545;SDS011;15749;49.606;8.738;2023-07-29T02:53:57;1.23;;;1.13;;
28545;SDS011;15749;49.606;8.738;2023-07-29T02:56:28;1.13;;;1.10;;
28545;SDS011;15749;49.606;8.738;2023-07-29T02:58:58;0.70;;;0.70;;
28545;SDS011;15749;49.606;8.738;2023-07-29T03:01:30;2.53;;;1.40;;
28545;SDS011;15749;49.606;8.738;2023-07-29T03:04:00;2.23;;;1.17;;
28545;SDS011;15749;49.606;8.738;2023-07-29T03:06:29;1.80;;;0.90;;
28545;SDS011;15749;49.606;8.738;2023-07-29T03:08:59;2.00;;;0.80;;
28545;SDS011;15749;49.606;8.738;2023-07-29T03:11:30;1.37;;;0.93;;
28545;SDS011;15749;49.606;8.738;2023-07-29T03:14:02;0.83;;;0.70;;
28545;SDS011;15749;49.606;8.738;2023-07-29T03:16:32;1.07;;;0.80;;
28545;SDS011;15749;49.606;8.738;2023-07-29T03:19:02;0.90;;;0.90;;
28545;SDS011;15749;49.606;8.738;2023-07-29T03:21:33;2.13;;;0.87;;
28545;SDS011;15749;49.606;8.738;2023-07-29T03:24:03;0.80;;;0.80;;
28545;SDS011;15749;49.606;8.738;2023-07-29T03:26:36;1.63;;;1.07;;
28545;SDS011;15749;49.606;8.738;2023-07-29T03:29:06;0.60;;;0.60;;
28545;SDS011;15749;49.606;8.738;2023-07-29T03:31:35;1.10;;;1.00;;
28545;SDS011;15749;49.606;8.738;2023-07-29T03:34:05;0.73;;;0.73;;
28545;SDS011;15749;49.606;8.738;2023-07-29T03:36:36;1.10;;;0.80;;
28545;SDS011;15749;49.606;8.738;2023-07-29T03:39:05;2.03;;;0.93;;
28545;SDS011;15749;49.606;8.738;2023-07-29T03:41:37;5.57;;;0.90;;
28545;SDS011;15749;49.606;8.738;2023-07-29T03:44:07;0.60;;;0.60;;
28545;SDS011;15749;49.606;8.738;2023-07-29T03:46:36;4.30;;;0.80;;
28545;SDS011;15749;49.606;8.738;2023-07-29T03:49:08;0.60;;;0.60;;
28545;SDS011;15749;49.606;8.738;2023-07-29T03:51:37;6.30;;;1.30;;
28545;SDS011;15749;49.606;8.738;2023-07-29T03:54:07;0.97;;;0.87;;
28545;SDS011;15749;49.606;8.738;2023-07-29T03:56:38;1.20;;;0.90;;
28545;SDS011;15749;49.606;8.738;2023-07-29T03:59:08;1.17;;;0.80;;
28545;SDS011;15749;49.606;8.738;2023-07-29T04:01:38;0.80;;;0.80;;
28545;SDS011;15749;49.606;8.738;2023-07-29T04:04:07;0.90;;;0.70;;
28545;SDS011;15749;49.606;8.738;2023-07-29T04:06:37;0.50;;;0.50;;
28545;SDS011;15749;49.606;8.738;2023-07-29T04:09:07;0.70;;;0.70;;
28545;SDS011;15749;49.606;8.738;2023-07-29T04:11:36;1.47;;;0.70;;
28545;SDS011;15749;49.606;8.738;2023-07-29T04:14:08;0.83;;;0.67;;
28545;SDS011;15749;49.606;8.738;2023-07-29T04:16:37;0.70;;;0.70;;
28545;SDS011;15749;49.606;8.738;2023-07-29T04:19:07;0.90;;;0.70;;
28545;SDS011;15749;49.606;8.738;2023-07-29T04:21:37;0.60;;;0.60;;
28545;SDS011;15749;49.606;8.738;2023-07-29T04:24:06;0.50;;;0.50;;
28545;SDS011;15749;49.606;8.738;2023-07-29T04:26:36;1.43;;;0.80;;
28545;SDS011;15749;49.606;8.738;2023-07-29T04:29:08;0.70;;;0.70;;
28545;SDS011;15749;49.606;8.738;2023-07-29T04:31:37;1.07;;;0.63;;
28545;SDS011;15749;49.606;8.738;2023-07-29T04:34:07;0.60;;;0.50;;
28545;SDS011;15749;49.606;8.738;2023-07-29T04:36:38;0.63;;;0.63;;
28545;SDS011;15749;49.606;8.738;2023-07-29T04:39:11;0.97;;;0.77;;
28545;SDS011;15749;49.606;8.738;2023-07-29T04:41:40;0.53;;;0.53;;
28545;SDS011;15749;49.606;8.738;2023-07-29T04:44:11;0.70;;;0.70;;
28545;SDS011;15749;49.606;8.738;2023-07-29T04:46:41;1.20;;;0.90;;
28545;SDS011;15749;49.606;8.738;2023-07-29T04:49:11;0.80;;;0.80;;
28545;SDS011;15749;49.606;8.738;2023-07-29T04:51:40;1.40;;;1.10;;
28545;SDS011;15749;49.606;8.738;2023-07-29T04:54:10;1.03;;;0.93;;
28545;SDS011;15749;49.606;8.738;2023-07-29T04:56:40;1.77;;;0.73;;
28545;SDS011;15749;49.606;8.738;2023-07-29T04:59:09;3.23;;;0.70;;
28545;SDS011;15749;49.606;8.738;2023-07-29T05:01:40;0.80;;;0.80;;
28545;SDS011;15749;49.606;8.738;2023-07-29T05:04:10;1.53;;;0.60;;
28545;SDS011;15749;49.606;8.738;2023-07-29T05:06:40;2.10;;;0.70;;
28545;SDS011;15749;49.606;8.738;2023-07-29T05:09:13;4.17;;;0.80;;
28545;SDS011;15749;49.606;8.738;2023-07-29T05:11:44;6.87;;;1.50;;
28545;SDS011;15749;49.606;8.738;2023-07-29T05:14:16;0.93;;;0.93;;
28545;SDS011;15749;49.606;8.738;2023-07-29T05:16:46;0.80;;;0.80;;
28545;SDS011;15749;49.606;8.738;2023-07-29T05:19:16;0.70;;;0.70;;
28545;SDS011;15749;49.606;8.738;2023-07-29T05:21:45;0.87;;;0.70;;
28545;SDS011;15749;49.606;8.738;2023-07-29T05:24:15;1.57;;;0.83;;
28545;SDS011;15749;49.606;8.738;2023-07-29T05:26:45;0.67;;;0.67;;
28545;SDS011;15749;49.606;8.738;2023-07-29T05:29:19;0.80;;;0.80;;
28545;SDS011;15749;49.606;8.738;2023-07-29T05:31:48;1.20;;;0.80;;
28545;SDS011;15749;49.606;8.738;2023-07-29T05:34:19;0.83;;;0.80;;
28545;SDS011;15749;49.606;8.738;2023-07-29T05:36:48;2.10;;;0.80;;
28545;SDS011;15749;49.606;8.738;2023-07-29T05:39:18;3.30;;;1.20;;
28545;SDS011;15749;49.606;8.738;2023-07-29T05:41:47;0.70;;;0.70;;
28545;SDS011;15749;49.606;8.738;2023-07-29T05:44:18;0.73;;;0.70;;
28545;SDS011;15749;49.606;8.738;2023-07-29T05:46:49;0.70;;;0.70;;
28545;SDS011;15749;49.606;8.738;2023-07-29T05:49:18;0.60;;;0.60;;
28545;SDS011;15749;49.606;8.738;2023-07-29T05:51:49;0.50;;;0.50;;
28545;SDS011;15749;49.606;8.738;2023-07-29T05:54:20;0.40;;;0.40;;
28545;SDS011;15749;49.606;8.738;2023-07-29T05:56:50;1.27;;;0.70;;
28545;SDS011;15749;49.606;8.738;2023-07-29T05:59:21;0.77;;;0.67;;
28545;SDS011;15749;49.606;8.738;2023-07-29T06:01:53;1.50;;;0.60;;
28545;SDS011;15749;49.606;8.738;2023-07-29T06:04:22;0.70;;;0.70;;
28545;SDS011;15749;49.606;8.738;2023-07-29T06:06:52;0.60;;;0.60;;
28545;SDS011;15749;49.606;8.738;2023-07-29T06:09:23;0.70;;;0.53;;
28545;SDS011;15749;49.606;8.738;2023-07-29T06:11:52;0.50;;;0.50;;
28545;SDS011;15749;49.606;8.738;2023-07-29T06:14:24;0.50;;;0.50;;
28545;SDS011;15749;49.606;8.738;2023-07-29T06:16:53;0.60;;;0.60;;
28545;SDS011;15749;49.606;8.738;2023-07-29T06:19:23;0.40;;;0.40;;
28545;SDS011;15749;49.606;8.738;2023-07-29T06:21:54;0.97;;;0.60;;
28545;SDS011;15749;49.606;8.738;2023-07-29T06:24:24;0.50;;;0.50;;
28545;SDS011;15749;49.606;8.738;2023-07-29T06:26:54;0.50;;;0.50;;
28545;SDS011;15749;49.606;8.738;2023-07-29T06:29:25;0.80;;;0.50;;
28545;SDS011;15749;49.606;8.738;2023-07-29T06:31:54;0.47;;;0.47;;
28545;SDS011;15749;49.606;8.738;2023-07-29T06:34:24;0.50;;;0.50;;
28545;SDS011;15749;49.606;8.738;2023-07-29T06:36:53;0.50;;;0.50;;
28545;SDS011;15749;49.606;8.738;2023-07-29T06:39:23;0.40;;;0.40;;
28545;SDS011;15749;49.606;8.738;2023-07-29T06:41:52;0.40;;;0.40;;
28545;SDS011;15749;49.606;8.738;2023-07-29T06:44:22;0.53;;;0.40;;
28545;SDS011;15749;49.606;8.738;2023-07-29T06:46:53;0.30;;;0.30;;
28545;SDS011;15749;49.606;8.738;2023-07-29T06:49:23;0.77;;;0.50;;
28545;SDS011;15749;49.606;8.738;2023-07-29T06:51:54;0.77;;;0.40;;
28545;SDS011;15749;49.606;8.738;2023-07-29T06:54:24;0.50;;;0.50;;
28545;SDS011;15749;49.606;8.738;2023-07-29T06:56:54;0.50;;;0.50;;
28545;SDS011;15749;49.606;8.738;2023-07-29T06:59:29;0.40;;;0.40;;
28545;SDS011;15749;49.606;8.738;2023-07-29T07:01:58;0.60;;;0.60;;
28545;SDS011;15749;49.606;8.738;2023-07-29T07:04:29;0.40;;;0.40;;
28545;SDS011;15749;49.606;8.738;2023-07-29T07:06:59;1.73;;;0.40;;
28545;SDS011;15749;49.606;8.738;2023-07-29T07:09:28;1.20;;;0.80;;
28545;SDS011;15749;49.606;8.738;2023-07-29T07:11:58;0.70;;;0.70;;
28545;SDS011;15749;49.606;8.738;2023-07-29T07:14:29;1.93;;;1.30;;
28545;SDS011;15749;49.606;8.738;2023-07-29T07:17:03;1.47;;;1.10;;
28545;SDS011;15749;49.606;8.738;2023-07-29T07:19:40;3.60;;;1.27;;
28545;SDS011;15749;49.606;8.738;2023-07-29T07:22:09;1.27;;;1.10;;
28545;SDS011;15749;49.606;8.738;2023-07-29T07:24:42;1.20;;;1.10;;
28545;SDS011;15749;49.606;8.738;2023-07-29T07:27:13;1.50;;;1.33;;
28545;SDS011;15749;49.606;8.738;2023-07-29T07:29:43;1.73;;;1.10;;
28545;SDS011;15749;49.606;8.738;2023-07-29T07:32:13;1.83;;;1.10;;
28545;SDS011;15749;49.606;8.738;2023-07-29T07:34:43;1.10;;;1.00;;
28545;SDS011;15749;49.606;8.738;2023-07-29T07:37:15;3.27;;;1.07;;
28545;SDS011;15749;49.606;8.738;2023-07-29T07:39:46;1.10;;;1.00;;
28545;SDS011;15749;49.606;8.738;2023-07-29T07:42:15;0.97;;;0.97;;
28545;SDS011;15749;49.606;8.738;2023-07-29T07:44:46;2.83;;;1.17;;
28545;SDS011;15749;49.606;8.738;2023-07-29T07:47:16;1.50;;;1.13;;
28545;SDS011;15749;49.606;8.738;2023-07-29T07:49:45;1.83;;;1.23;;
28545;SDS011;15749;49.606;8.738;2023-07-29T07:52:18;2.20;;;1.20;;
28545;SDS011;15749;49.606;8.738;2023-07-29T07:54:51;2.60;;;1.20;;
28545;SDS011;15749;49.606;8.738;2023-07-29T07:57:21;1.30;;;1.20;;
28545;SDS011;15749;49.606;8.738;2023-07-29T07:59:52;2.27;;;1.30;;
28545;SDS011;15749;49.606;8.738;2023-07-29T08:02:22;1.40;;;1.20;;
28545;SDS011;15749;49.606;8.738;2023-07-29T08:04:51;3.23;;;1.40;;
28545;SDS011;15749;49.606;8.738;2023-07-29T08:07:21;1.67;;;1.40;;
28545;SDS011;15749;49.606;8.738;2023-07-29T08:09:50;0.90;;;0.90;;
28545;SDS011;15749;49.606;8.738;2023-07-29T08:12:20;1.90;;;1.13;;
28545;SDS011;15749;49.606;8.738;2023-07-29T08:14:49;1.97;;;1.00;;
28545;SDS011;15749;49.606;8.738;2023-07-29T08:17:20;1.37;;;1.27;;
28545;SDS011;15749;49.606;8.738;2023-07-29T08:19:53;1.40;;;1.30;;
28545;SDS011;15749;49.606;8.738;2023-07-29T08:22:26;1.30;;;1.20;;
28545;SDS011;15749;49.606;8.738;2023-07-29T08:24:56;1.83;;;1.50;;
28545;SDS011;15749;49.606;8.738;2023-07-29T08:27:25;2.63;;;1.50;;
28545;SDS011;15749;49.606;8.738;2023-07-29T08:29:55;2.47;;;1.53;;
28545;SDS011;15749;49.606;8.738;2023-07-29T08:32:26;1.33;;;0.97;;
28545;SDS011;15749;49.606;8.738;2023-07-29T08:34:55;1.40;;;1.30;;
28545;SDS011;15749;49.606;8.738;2023-07-29T08:37:25;1.00;;;1.00;;
28545;SDS011;15749;49.606;8.738;2023-07-29T08:39:58;0.87;;;0.87;;
28545;SDS011;15749;49.606;8.738;2023-07-29T08:42:31;0.90;;;0.90;;
28545;SDS011;15749;49.606;8.738;2023-07-29T08:45:06;1.20;;;1.10;;
28545;SDS011;15749;49.606;8.738;2023-07-29T08:47:38;3.00;;;1.40;;
28545;SDS011;15749;49.606;8.738;2023-07-29T08:50:08;1.43;;;1.33;;
28545;SDS011;15749;49.606;8.738;2023-07-29T08:52:41;4.43;;;1.77;;
28545;SDS011;15749;49.606;8.738;2023-07-29T08:55:11;1.90;;;1.30;;
28545;SDS011;15749;49.606;8.738;2023-07-29T08:57:41;1.20;;;1.10;;
28545;SDS011;15749;49.606;8.738;2023-07-29T09:00:11;1.40;;;1.30;;
28545;SDS011;15749;49.606;8.738;2023-07-29T09:02:44;0.90;;;0.90;;
28545;SDS011;15749;49.606;8.738;2023-07-29T09:05:14;1.37;;;1.17;;
28545;SDS011;15749;49.606;8.738;2023-07-29T09:07:44;1.13;;;1.10;;
28545;SDS011;15749;49.606;8.738;2023-07-29T09:10:15;1.33;;;1.20;;
28545;SDS011;15749;49.606;8.738;2023-07-29T09:12:45;1.47;;;1.37;;
28545;SDS011;15749;49.606;8.738;2023-07-29T09:15:28;1.30;;;1.20;;
28545;SDS011;15749;49.606;8.738;2023-07-29T09:18:00;1.23;;;1.00;;
28545;SDS011;15749;49.606;8.738;2023-07-29T09:20:38;1.37;;;1.27;;
28545;SDS011;15749;49.606;8.738;2023-07-29T09:23:09;1.50;;;1.33;;
28545;SDS011;15749;49.606;8.738;2023-07-29T09:25:39;1.37;;;1.27;;
28545;SDS011;15749;49.606;8.738;2023-07-29T09:28:10;2.78;;;1.40;;
28545;SDS011;15749;49.606;8.738;2023-07-29T09:30:42;1.33;;;1.00;;
28545;SDS011;15749;49.606;8.738;2023-07-29T09:33:16;1.30;;;1.20;;
28545;SDS011;15749;49.606;8.738;2023-07-29T09:35:47;1.40;;;1.30;;
28545;SDS011;15749;49.606;8.738;2023-07-29T09:38:26;1.63;;;1.17;;
28545;SDS011;15749;49.606;8.738;2023-07-29T09:40:56;2.60;;;1.70;;
28545;SDS011;15749;49.606;8.738;2023-07-29T09:43:28;1.83;;;1.40;;
28545;SDS011;15749;49.606;8.738;2023-07-29T09:45:59;1.40;;;1.30;;
28545;SDS011;15749;49.606;8.738;2023-07-29T09:48:33;1.30;;;1.20;;
28545;SDS011;15749;49.606;8.738;2023-07-29T09:51:10;3.10;;;1.40;;
28545;SDS011;15749;49.606;8.738;2023-07-29T09:53:41;1.23;;;1.13;;
28545;SDS011;15749;49.606;8.738;2023-07-29T09:56:14;1.15;;;1.10;;
28545;SDS011;15749;49.606;8.738;2023-07-29T09:58:44;1.30;;;1.20;;
28545;SDS011;15749;49.606;8.738;2023-07-29T10:01:15;1.17;;;1.13;;
28545;SDS011;15749;49.606;8.738;2023-07-29T10:03:46;1.70;;;1.10;;
28545;SDS011;15749;49.606;8.738;2023-07-29T10:06:17;1.50;;;1.40;;
28545;SDS011;15749;49.606;8.738;2023-07-29T10:08:49;1.30;;;1.20;;
28545;SDS011;15749;49.606;8.738;2023-07-29T10:11:20;1.20;;;1.10;;
28545;SDS011;15749;49.606;8.738;2023-07-29T10:13:51;1.40;;;1.33;;
28545;SDS011;15749;49.606;8.738;2023-07-29T10:16:35;1.93;;;1.30;;
28545;SDS011;15749;49.606;8.738;2023-07-29T10:19:07;1.33;;;1.20;;
28545;SDS011;15749;49.606;8.738;2023-07-29T10:21:40;1.43;;;1.33;;
28545;SDS011;15749;49.606;8.738;2023-07-29T10:24:14;2.20;;;1.33;;
28545;SDS011;15749;49.606;8.738;2023-07-29T10:26:49;1.33;;;1.23;;
28545;SDS011;15749;49.606;8.738;2023-07-29T10:29:19;1.40;;;1.30;;
28545;SDS011;15749;49.606;8.738;2023-07-29T10:31:52;1.53;;;1.43;;
28545;SDS011;15749;49.606;8.738;2023-07-29T10:34:24;2.95;;;1.33;;
28545;SDS011;15749;49.606;8.738;2023-07-29T10:36:53;1.60;;;1.50;;
28545;SDS011;15749;49.606;8.738;2023-07-29T10:39:24;2.45;;;1.75;;
28545;SDS011;15749;49.606;8.738;2023-07-29T10:41:57;1.70;;;1.60;;
28545;SDS011;15749;49.606;8.738;2023-07-29T10:44:47;1.60;;;1.50;;
28545;SDS011;15749;49.606;8.738;2023-07-29T10:47:22;1.33;;;1.20;;
28545;SDS011;15749;49.606;8.738;2023-07-29T10:49:54;1.50;;;1.40;;
28545;SDS011;15749;49.606;8.738;2023-07-29T10:52:29;1.30;;;1.20;;
28545;SDS011;15749;49.606;8.738;2023-07-29T10:55:28;1.37;;;1.20;;
28545;SDS011;15749;49.606;8.738;2023-07-29T10:58:12;1.60;;;1.50;;
28545;SDS011;15749;49.606;8.738;2023-07-29T11:00:44;1.20;;;1.10;;
28545;SDS011;15749;49.606;8.738;2023-07-29T11:03:14;5.78;;;2.05;;
28545;SDS011;15749;49.606;8.738;2023-07-29T11:05:49;1.45;;;1.35;;
28545;SDS011;15749;49.606;8.738;2023-07-29T11:08:21;2.03;;;1.33;;
28545;SDS011;15749;49.606;8.738;2023-07-29T11:10:59;1.50;;;1.40;;
28545;SDS011;15749;49.606;8.738;2023-07-29T11:13:32;2.58;;;1.40;;
28545;SDS011;15749;49.606;8.738;2023-07-29T11:16:03;1.52;;;1.42;;
28545;SDS011;15749;49.606;8.738;2023-07-29T11:18:35;1.45;;;1.35;;
28545;SDS011;15749;49.606;8.738;2023-07-29T11:21:06;1.83;;;1.30;;
28545;SDS011;15749;49.606;8.738;2023-07-29T11:23:36;2.40;;;1.55;;
28545;SDS011;15749;49.606;8.738;2023-07-29T11:26:06;1.50;;;1.40;;
28545;SDS011;15749;49.606;8.738;2023-07-29T11:28:39;1.60;;;1.50;;
28545;SDS011;15749;49.606;8.738;2023-07-29T11:31:09;1.50;;;1.30;;
28545;SDS011;15749;49.606;8.738;2023-07-29T11:33:38;1.88;;;1.50;;
28545;SDS011;15749;49.606;8.738;2023-07-29T11:36:18;1.52;;;1.30;;
28545;SDS011;15749;49.606;8.738;2023-07-29T11:38:50;1.55;;;1.17;;
28545;SDS011;15749;49.606;8.738;2023-07-29T11:41:20;1.70;;;1.60;;
28545;SDS011;15749;49.606;8.738;2023-07-29T11:43:50;2.78;;;2.00;;
28545;SDS011;15749;49.606;8.738;2023-07-29T11:46:22;1.60;;;1.50;;
28545;SDS011;15749;49.606;8.738;2023-07-29T11:48:53;1.50;;;1.40;;
28545;SDS011;15749;49.606;8.738;2023-07-29T11:51:25;1.50;;;1.40;;
28545;SDS011;15749;49.606;8.738;2023-07-29T11:53:54;1.40;;;1.30;;
28545;SDS011;15749;49.606;8.738;2023-07-29T11:56:24;1.40;;;1.30;;
28545;SDS011;15749;49.606;8.738;2023-07-29T11:58:57;1.52;;;1.40;;
28545;SDS011;15749;49.606;8.738;2023-07-29T12:01:27;1.30;;;1.13;;
28545;SDS011;15749;49.606;8.738;2023-07-29T12:03:57;1.10;;;1.10;;
28545;SDS011;15749;49.606;8.738;2023-07-29T12:06:28;1.25;;;1.17;;
28545;SDS011;15749;49.606;8.738;2023-07-29T12:08:58;3.25;;;1.45;;
28545;SDS011;15749;49.606;8.738;2023-07-29T12:11:29;1.30;;;1.17;;
28545;SDS011;15749;49.606;8.738;2023-07-29T12:14:02;1.42;;;1.33;;
28545;SDS011;15749;49.606;8.738;2023-07-29T12:16:40;2.15;;;1.30;;
28545;SDS011;15749;49.606;8.738;2023-07-29T12:19:11;1.40;;;1.30;;
28545;SDS011;15749;49.606;8.738;2023-07-29T12:21:43;4.50;;;1.80;;
28545;SDS011;15749;49.606;8.738;2023-07-29T12:24:13;3.67;;;1.30;;
28545;SDS011;15749;49.606;8.738;2023-07-29T12:26:43;1.30;;;1.20;;
28545;SDS011;15749;49.606;8.738;2023-07-29T12:29:13;1.48;;;1.38;;
28545;SDS011;15749;49.606;8.738;2023-07-29T12:31:44;1.40;;;1.23;;
28545;SDS011;15749;49.606;8.738;2023-07-29T12:34:17;1.50;;;1.40;;
28545;SDS011;15749;49.606;8.738;2023-07-29T12:36:49;1.48;;;1.38;;
28545;SDS011;15749;49.606;8.738;2023-07-29T12:39:22;1.40;;;1.30;;
28545;SDS011;15749;49.606;8.738;2023-07-29T12:41:54;1.40;;;1.30;;
28545;SDS011;15749;49.606;8.738;2023-07-29T12:44:29;2.00;;;1.38;;
28545;SDS011;15749;49.606;8.738;2023-07-29T12:47:01;2.25;;;1.20;;
28545;SDS011;15749;49.606;8.738;2023-07-29T12:49:32;1.60;;;1.33;;
28545;SDS011;15749;49.606;8.738;2023-07-29T12:52:03;1.58;;;1.40;;
28545;SDS011;15749;49.606;8.738;2023-07-29T12:54:33;3.33;;;1.45;;
28545;SDS011;15749;49.606;8.738;2023-07-29T12:57:02;1.25;;;1.20;;
28545;SDS011;15749;49.606;8.738;2023-07-29T12:59:32;1.50;;;1.40;;
28545;SDS011;15749;49.606;8.738;2023-07-29T13:02:02;1.40;;;1.30;;
28545;SDS011;15749;49.606;8.738;2023-07-29T13:04:34;3.47;;;1.20;;
28545;SDS011;15749;49.606;8.738;2023-07-29T13:07:05;1.63;;;1.20;;
28545;SDS011;15749;49.606;8.738;2023-07-29T13:09:35;1.77;;;1.25;;
28545;SDS011;15749;49.606;8.738;2023-07-29T13:12:04;2.20;;;1.10;;
28545;SDS011;15749;49.606;8.738;2023-07-29T13:14:35;1.40;;;1.30;;
28545;SDS011;15749;49.606;8.738;2023-07-29T13:17:05;2.47;;;1.40;;
28545;SDS011;15749;49.606;8.738;2023-07-29T13:19:35;1.30;;;1.20;;
28545;SDS011;15749;49.606;8.738;2023-07-29T13:22:05;2.60;;;1.35;;
28545;SDS011;15749;49.606;8.738;2023-07-29T13:24:35;1.38;;;1.25;;
28545;SDS011;15749;49.606;8.738;2023-07-29T13:27:05;1.40;;;1.30;;
28545;SDS011;15749;49.606;8.738;2023-07-29T13:29:35;1.55;;;1.30;;
28545;SDS011;15749;49.606;8.738;2023-07-29T13:32:05;1.30;;;1.20;;
28545;SDS011;15749;49.606;8.738;2023-07-29T13:34:36;2.30;;;1.38;;
28545;SDS011;15749;49.606;8.738;2023-07-29T13:37:08;2.60;;;1.52;;
28545;SDS011;15749;49.606;8.738;2023-07-29T13:39:38;1.42;;;1.23;;
28545;SDS011;15749;49.606;8.738;2023-07-29T13:42:07;1.42;;;1.10;;
28545;SDS011;15749;49.606;8.738;2023-07-29T13:44:37;2.47;;;1.50;;
28545;SDS011;15749;49.606;8.738;2023-07-29T13:47:06;1.23;;;1.13;;
28545;SDS011;15749;49.606;8.738;2023-07-29T13:49:36;1.00;;;1.00;;
28545;SDS011;15749;49.606;8.738;2023-07-29T13:52:16;3.40;;;1.50;;
28545;SDS011;15749;49.606;8.738;2023-07-29T13:55:31;1.20;;;1.10;;
28545;SDS011;15749;49.606;8.738;2023-07-29T13:58:01;1.40;;;1.23;;
28545;SDS011;15749;49.606;8.738;2023-07-29T14:00:31;2.67;;;1.55;;
28545;SDS011;15749;49.606;8.738;2023-07-29T14:03:00;1.95;;;1.40;;
28545;SDS011;15749;49.606;8.738;2023-07-29T14:05:30;1.67;;;1.10;;
28545;SDS011;15749;49.606;8.738;2023-07-29T14:08:01;1.58;;;1.40;;
28545;SDS011;15749;49.606;8.738;2023-07-29T14:10:31;3.17;;;1.50;;
28545;SDS011;15749;49.606;8.738;2023-07-29T14:13:00;1.63;;;1.35;;
28545;SDS011;15749;49.606;8.738;2023-07-29T14:15:30;1.83;;;1.20;;
28545;SDS011;15749;49.606;8.738;2023-07-29T14:18:00;1.85;;;1.40;;
28545;SDS011;15749;49.606;8.738;2023-07-29T14:20:31;1.48;;;1.30;;
28545;SDS011;15749;49.606;8.738;2023-07-29T14:23:02;3.75;;;1.42;;
28545;SDS011;15749;49.606;8.738;2023-07-29T14:25:31;3.33;;;1.30;;
28545;SDS011;15749;49.606;8.738;2023-07-29T14:28:01;1.20;;;1.10;;
28545;SDS011;15749;49.606;8.738;2023-07-29T14:30:31;4.25;;;1.40;;
28545;SDS011;15749;49.606;8.738;2023-07-29T14:33:00;2.25;;;1.40;;
28545;SDS011;15749;49.606;8.738;2023-07-29T14:35:30;2.60;;;1.40;;
28545;SDS011;15749;49.606;8.738;2023-07-29T14:37:59;1.23;;;1.10;;
28545;SDS011;15749;49.606;8.738;2023-07-29T14:40:30;1.83;;;1.20;;
28545;SDS011;15749;49.606;8.738;2023-07-29T14:43:00;1.77;;;1.35;;
28545;SDS011;15749;49.606;8.738;2023-07-29T14:45:29;1.80;;;1.70;;
28545;SDS011;15749;49.606;8.738;2023-07-29T14:47:59;1.50;;;1.40;;
28545;SDS011;15749;49.606;8.738;2023-07-29T14:50:28;2.42;;;2.22;;
28545;SDS011;15749;49.606;8.738;2023-07-29T14:53:02;2.40;;;2.20;;
28545;SDS011;15749;49.606;8.738;2023-07-29T14:55:36;5.60;;;5.20;;
28545;SDS011;15749;49.606;8.738;2023-07-29T14:58:06;6.00;;;5.50;;
28545;SDS011;15749;49.606;8.738;2023-07-29T15:00:35;3.10;;;2.90;;
28545;SDS011;15749;49.606;8.738;2023-07-29T15:03:05;1.70;;;1.60;;
28545;SDS011;15749;49.606;8.738;2023-07-29T15:05:35;1.70;;;1.60;;
28545;SDS011;15749;49.606;8.738;2023-07-29T15:08:06;1.48;;;1.38;;
28545;SDS011;15749;49.606;8.738;2023-07-29T15:10:38;4.03;;;1.20;;
28545;SDS011;15749;49.606;8.738;2023-07-29T15:13:18;1.38;;;1.27;;